Time;durP1;ratioP1;P1;durP2;ratioP2;P2;SDS_P1;SDS_P2;PMS_P1;PMS_P2;Temp;Humidity;BMP_temperature;BMP_pressure;BME280_temperature;BME280_humidity;BME280_pressure;Samples;Min_cycle;Max_cycle;Signal;HPM_P1;HPM_P2
2023/09/23 00:00:55;;;;;;;;;;;13.00;99.90;;;;;;5154960;27;19917;-43
2023/09/23 00:03:23;;;;;;;;;;;13.00;99.90;;;;;;5155314;27;19946;-42
2023/09/23 00:05:49;;;;;;;;;;;13.00;99.90;;;;;;5136185;27;19912;-43
2023/09/23 00:08:18;;;;;;;;;;;13.00;99.90;;;;;;5134550;27;19907;-42
2023/09/23 00:10:50;;;;;;;;;;;13.00;99.90;;;;;;5134530;27;19911;-43
2023/09/23 00:13:16;;;;;;;;;;;13.10;99.90;;;;;;5134473;27;19911;-45
2023/09/23 00:15:42;;;;;;;;;;;13.00;99.90;;;;;;5134541;27;20388;-43
2023/09/23 00:18:08;;;;;;;;;;;13.10;99.90;;;;;;5133521;27;19934;-42
2023/09/23 00:20:36;;;;;;;;;;;13.10;99.90;;;;;;5141499;27;19916;-43
2023/09/23 00:23:05;;;;;;;;;;;13.10;99.90;;;;;;5123143;27;19916;-42
2023/09/23 00:25:31;;;;;;;;;;;13.10;99.90;;;;;;5134149;27;20346;-44
2023/09/23 00:27:56;;;;;;;;;;;13.10;99.90;;;;;;5134223;27;19914;-43
2023/09/23 00:30:26;;;;;;;;;;;13.10;99.90;;;;;;5133977;27;19957;-43
2023/09/23 00:32:52;;;;;;;;;;;13.00;99.90;;;;;;5133867;27;20294;-44
2023/09/23 00:35:18;;;;;;;;;;;13.00;99.90;;;;;;5134085;27;19907;-44
2023/09/23 00:37:51;;;;;;;;;;;12.90;99.90;;;;;;5134049;27;20022;-44
2023/09/23 00:40:38;;;;;;;;;;;12.90;99.90;;;;;;5127735;27;20294;-43
2023/09/23 00:43:05;;;;;;;;;;;12.80;99.90;;;;;;5113563;28;19914;-44
2023/09/23 00:45:31;;;;;;;;;;;12.80;99.90;;;;;;5113516;28;19915;-43
2023/09/23 00:47:57;;;;;;;;;;;12.80;99.90;;;;;;5113443;28;19908;-43
2023/09/23 00:50:24;;;;;;;;;;;12.80;99.90;;;;;;5121817;27;19918;-43
2023/09/23 00:52:53;;;;;;;;;;;12.80;99.90;;;;;;5133806;27;19998;-44
2023/09/23 00:55:19;;;;;;;;;;;12.80;99.90;;;;;;5133836;27;19908;-44
2023/09/23 00:57:46;;;;;;;;;;;12.80;99.90;;;;;;5133983;27;19968;-45
2023/09/23 01:00:11;;;;;;;;;;;12.80;99.90;;;;;;5133605;27;19911;-43
2023/09/23 01:02:37;;;;;;;;;;;12.80;99.90;;;;;;5133875;27;19914;-43
2023/09/23 01:05:04;;;;;;;;;;;12.80;99.90;;;;;;5133786;28;20273;-43
2023/09/23 01:07:31;;;;;;;;;;;12.70;99.90;;;;;;5133970;28;20002;-43
2023/09/23 01:09:57;;;;;;;;;;;12.70;99.90;;;;;;5133680;27;19911;-42
2023/09/23 01:12:22;;;;;;;;;;;12.70;99.90;;;;;;5133632;28;19914;-44
2023/09/23 01:14:48;;;;;;;;;;;12.70;99.90;;;;;;5133755;28;19907;-43
2023/09/23 01:17:15;;;;;;;;;;;12.70;99.90;;;;;;5133543;28;19915;-44
2023/09/23 01:19:41;;;;;;;;;;;12.70;99.90;;;;;;5133289;27;19907;-44
2023/09/23 01:22:08;;;;;;;;;;;12.70;99.90;;;;;;5133549;28;19907;-43
2023/09/23 01:24:34;;;;;;;;;;;12.70;99.90;;;;;;5133526;28;20034;-44
2023/09/23 01:26:59;;;;;;;;;;;12.70;99.90;;;;;;5133517;28;19989;-43
2023/09/23 01:29:26;;;;;;;;;;;12.70;99.90;;;;;;5133389;27;19911;-43
2023/09/23 01:31:58;;;;;;;;;;;12.70;99.90;;;;;;5133445;28;20299;-43
2023/09/23 01:34:23;;;;;;;;;;;12.70;99.90;;;;;;5115406;27;19927;-43
2023/09/23 01:36:49;;;;;;;;;;;12.70;99.90;;;;;;5112975;28;19920;-43
2023/09/23 01:39:14;;;;;;;;;;;12.60;99.90;;;;;;5123454;27;20429;-45
2023/09/23 01:41:40;;;;;;;;;;;12.60;99.90;;;;;;5133540;28;19907;-44
2023/09/23 01:44:06;;;;;;;;;;;12.60;99.90;;;;;;5134376;27;19922;-45
2023/09/23 01:46:33;;;;;;;;;;;12.60;99.90;;;;;;5133123;27;20014;-45
2023/09/23 01:49:00;;;;;;;;;;;12.60;99.90;;;;;;5133296;28;19911;-43
2023/09/23 01:51:25;;;;;;;;;;;12.60;99.90;;;;;;5133267;28;19908;-43
2023/09/23 01:53:51;;;;;;;;;;;12.60;99.90;;;;;;5133256;28;20001;-44
2023/09/23 01:56:16;;;;;;;;;;;12.60;99.90;;;;;;5138924;27;19927;-44
2023/09/23 01:58:43;;;;;;;;;;;12.60;99.90;;;;;;5153894;27;19914;-43
2023/09/23 02:01:09;;;;;;;;;;;12.60;99.90;;;;;;5154019;27;19915;-43
2023/09/23 02:03:34;;;;;;;;;;;12.60;99.90;;;;;;5153831;27;19959;-44
2023/09/23 02:06:00;;;;;;;;;;;12.50;99.90;;;;;;5153592;27;19915;-43
2023/09/23 02:08:25;;;;;;;;;;;12.50;99.90;;;;;;5154077;27;20262;-43
2023/09/23 02:10:51;;;;;;;;;;;12.50;99.90;;;;;;5155627;27;20284;-43
2023/09/23 02:13:18;;;;;;;;;;;12.60;99.90;;;;;;5157544;27;19907;-43
2023/09/23 02:15:44;;;;;;;;;;;12.60;99.90;;;;;;5157091;27;19907;-43
2023/09/23 02:18:10;;;;;;;;;;;12.60;99.90;;;;;;5157388;27;19964;-46
2023/09/23 02:20:35;;;;;;;;;;;12.50;99.90;;;;;;5157602;27;19911;-43
2023/09/23 02:23:01;;;;;;;;;;;12.50;99.90;;;;;;5157529;27;20353;-42
2023/09/23 02:25:27;;;;;;;;;;;12.50;99.90;;;;;;5156917;27;20373;-41
2023/09/23 02:27:53;;;;;;;;;;;12.50;99.90;;;;;;5157393;27;19918;-42
2023/09/23 02:30:18;;;;;;;;;;;12.50;99.90;;;;;;5157212;27;19907;-44
2023/09/23 02:32:45;;;;;;;;;;;12.60;99.90;;;;;;5156970;27;19942;-44
2023/09/23 02:35:11;;;;;;;;;;;12.60;99.90;;;;;;5156830;27;19912;-43
2023/09/23 02:37:39;;;;;;;;;;;12.60;99.90;;;;;;5156496;27;20129;-43
2023/09/23 02:40:06;;;;;;;;;;;12.60;99.90;;;;;;5157278;27;19962;-45
2023/09/23 02:42:31;;;;;;;;;;;12.60;99.90;;;;;;5157005;27;19907;-43
2023/09/23 02:44:57;;;;;;;;;;;12.60;99.90;;;;;;5156600;27;19918;-44
2023/09/23 02:47:22;;;;;;;;;;;12.60;99.90;;;;;;5156492;27;19956;-43
2023/09/23 02:49:48;;;;;;;;;;;12.60;99.90;;;;;;5157006;27;20336;-43
2023/09/23 02:52:13;;;;;;;;;;;12.60;99.90;;;;;;5156810;27;19907;-43
2023/09/23 02:54:39;;;;;;;;;;;12.60;99.90;;;;;;5152612;27;19919;-44
2023/09/23 02:57:08;;;;;;;;;;;12.60;99.90;;;;;;5156044;27;19971;-45
2023/09/23 02:59:41;;;;;;;;;;;12.60;99.90;;;;;;5156216;27;20130;-43
2023/09/23 03:02:07;;;;;;;;;;;12.50;99.90;;;;;;5156786;27;19946;-44
2023/09/23 03:04:33;;;;;;;;;;;12.50;99.90;;;;;;5156109;27;19919;-43
2023/09/23 03:07:01;;;;;;;;;;;12.50;99.90;;;;;;5156637;27;19915;-42
2023/09/23 03:09:32;;;;;;;;;;;12.50;99.90;;;;;;5156542;27;19914;-43
2023/09/23 03:11:59;;;;;;;;;;;12.40;99.90;;;;;;5156607;27;20005;-44
2023/09/23 03:14:42;;;;;;;;;;;12.40;99.90;;;;;;5154320;27;19907;-44
2023/09/23 03:17:09;;;;;;;;;;;12.40;99.90;;;;;;5127589;27;19916;-45
2023/09/23 03:19:35;;;;;;;;;;;12.30;99.90;;;;;;5114912;28;19908;-44
2023/09/23 03:22:01;;;;;;;;;;;12.30;99.90;;;;;;5114001;28;20274;-43
2023/09/23 03:24:28;;;;;;;;;;;12.30;99.90;;;;;;5117496;27;19908;-44
2023/09/23 03:27:01;;;;;;;;;;;12.30;99.90;;;;;;5156131;27;19907;-43
2023/09/23 03:29:28;;;;;;;;;;;12.20;99.90;;;;;;5156150;27;19907;-43
2023/09/23 03:31:57;;;;;;;;;;;12.20;99.90;;;;;;5156149;27;19929;-44
2023/09/23 03:34:23;;;;;;;;;;;12.20;99.90;;;;;;5134206;27;19920;-45
2023/09/23 03:36:51;;;;;;;;;;;12.10;99.90;;;;;;5116160;27;19926;-44
2023/09/23 03:39:17;;;;;;;;;;;12.10;99.90;;;;;;5125364;27;19912;-43
2023/09/23 03:41:49;;;;;;;;;;;12.10;99.90;;;;;;5117223;27;20369;-44
2023/09/23 03:44:14;;;;;;;;;;;12.10;99.90;;;;;;5142336;27;20010;-43
2023/09/23 03:46:42;;;;;;;;;;;12.10;99.90;;;;;;5144013;27;20001;-45
2023/09/23 03:49:09;;;;;;;;;;;12.10;99.90;;;;;;5143552;27;19914;-46
2023/09/23 03:51:34;;;;;;;;;;;12.00;99.90;;;;;;5145396;27;19907;-45
2023/09/23 03:54:00;;;;;;;;;;;12.00;99.90;;;;;;5144253;27;19918;-43
2023/09/23 03:56:27;;;;;;;;;;;12.00;99.90;;;;;;5144384;27;19922;-43
2023/09/23 03:58:55;;;;;;;;;;;12.00;99.90;;;;;;5136482;27;19918;-44
2023/09/23 04:01:23;;;;;;;;;;;12.00;99.90;;;;;;5137675;27;19911;-43
2023/09/23 04:03:52;;;;;;;;;;;12.00;99.90;;;;;;5144910;27;20104;-44
2023/09/23 04:06:17;;;;;;;;;;;12.00;99.90;;;;;;5138705;27;19975;-43
2023/09/23 04:08:43;;;;;;;;;;;12.00;99.90;;;;;;5136008;27;20422;-44
2023/09/23 04:11:09;;;;;;;;;;;12.00;99.90;;;;;;5140296;27;20380;-44
2023/09/23 04:13:34;;;;;;;;;;;12.00;99.90;;;;;;5140136;27;19994;-43
2023/09/23 04:16:00;;;;;;;;;;;11.90;99.90;;;;;;5142176;27;19960;-44
2023/09/23 04:18:30;;;;;;;;;;;11.90;99.90;;;;;;5136515;27;20038;-46
2023/09/23 04:20:56;;;;;;;;;;;11.90;99.90;;;;;;5138845;27;20068;-43
2023/09/23 04:23:21;;;;;;;;;;;11.90;99.90;;;;;;5143176;27;19982;-44
2023/09/23 04:25:48;;;;;;;;;;;11.90;99.90;;;;;;5143251;27;19910;-44
2023/09/23 04:28:13;;;;;;;;;;;11.90;99.90;;;;;;5142156;27;19926;-43
2023/09/23 04:30:39;;;;;;;;;;;11.90;99.90;;;;;;5131401;27;19912;-44
2023/09/23 04:33:04;;;;;;;;;;;11.90;99.90;;;;;;5137099;27;20070;-44
2023/09/23 04:35:30;;;;;;;;;;;11.90;99.90;;;;;;5144296;27;19919;-43
2023/09/23 04:37:55;;;;;;;;;;;11.80;99.90;;;;;;5142214;27;19938;-44
2023/09/23 04:40:21;;;;;;;;;;;11.80;99.90;;;;;;5144076;27;19907;-44
2023/09/23 04:42:48;;;;;;;;;;;11.80;99.90;;;;;;5143934;27;20413;-43
2023/09/23 04:45:14;;;;;;;;;;;11.80;99.90;;;;;;5143828;27;19915;-44
2023/09/23 04:47:45;;;;;;;;;;;11.80;99.90;;;;;;5142186;27;19914;-42
2023/09/23 04:50:12;;;;;;;;;;;11.80;99.90;;;;;;5141916;27;19911;-44
2023/09/23 04:52:37;;;;;;;;;;;11.80;99.90;;;;;;5129883;27;20266;-43
2023/09/23 04:55:03;;;;;;;;;;;11.80;99.90;;;;;;5120330;27;19912;-44
2023/09/23 04:57:29;;;;;;;;;;;11.70;99.90;;;;;;5133745;27;19919;-44
2023/09/23 04:59:56;;;;;;;;;;;11.70;99.90;;;;;;5133926;27;19908;-44
2023/09/23 05:02:22;;;;;;;;;;;11.70;99.90;;;;;;5136648;27;20378;-46
2023/09/23 05:04:53;;;;;;;;;;;11.70;99.90;;;;;;5137009;27;19911;-43
2023/09/23 05:07:23;;;;;;;;;;;11.70;99.90;;;;;;5139276;27;19977;-44
2023/09/23 05:09:49;;;;;;;;;;;11.60;99.90;;;;;;5133895;27;19907;-43
2023/09/23 05:12:14;;;;;;;;;;;11.60;99.90;;;;;;5124365;27;19914;-44
2023/09/23 05:14:40;;;;;;;;;;;11.60;99.90;;;;;;5142644;27;19918;-42
2023/09/23 05:17:05;;;;;;;;;;;11.60;99.90;;;;;;5124046;28;19915;-44
2023/09/23 05:19:34;;;;;;;;;;;11.60;99.90;;;;;;5127366;28;19911;-43
2023/09/23 05:22:00;;;;;;;;;;;11.50;99.90;;;;;;5115793;27;20428;-44
2023/09/23 05:24:26;;;;;;;;;;;11.50;99.90;;;;;;5126360;27;19912;-42
2023/09/23 05:26:55;;;;;;;;;;;11.50;99.90;;;;;;5127657;28;19938;-47
2023/09/23 05:29:23;;;;;;;;;;;11.50;99.90;;;;;;5133510;28;19916;-43
2023/09/23 05:31:49;;;;;;;;;;;11.50;99.90;;;;;;5134441;27;19908;-43
2023/09/23 05:34:21;;;;;;;;;;;11.50;99.90;;;;;;5133011;27;19920;-44
2023/09/23 05:36:46;;;;;;;;;;;11.50;99.90;;;;;;5125588;28;20002;-44
2023/09/23 05:39:18;;;;;;;;;;;11.50;99.90;;;;;;5112844;28;19939;-45
2023/09/23 05:41:43;;;;;;;;;;;11.60;99.90;;;;;;5127831;27;19998;-43
2023/09/23 05:44:09;;;;;;;;;;;11.60;99.90;;;;;;5133031;27;20401;-44
2023/09/23 05:46:35;;;;;;;;;;;11.60;99.90;;;;;;5136344;27;19907;-44
2023/09/23 05:49:00;;;;;;;;;;;11.60;99.90;;;;;;5137380;27;20377;-43
2023/09/23 05:51:26;;;;;;;;;;;11.70;99.90;;;;;;5137226;27;19947;-47
2023/09/23 05:53:51;;;;;;;;;;;11.70;99.90;;;;;;5152338;27;19919;-43
2023/09/23 05:56:17;;;;;;;;;;;11.80;99.90;;;;;;5157926;27;20369;-43
2023/09/23 05:58:42;;;;;;;;;;;11.80;99.90;;;;;;5157847;27;19907;-43
2023/09/23 06:01:08;;;;;;;;;;;11.80;99.90;;;;;;5149517;27;19954;-43
2023/09/23 06:03:33;;;;;;;;;;;11.90;99.90;;;;;;5136623;27;20362;-43
2023/09/23 06:05:59;;;;;;;;;;;11.90;99.90;;;;;;5137169;27;19911;-44
2023/09/23 06:08:25;;;;;;;;;;;11.90;99.90;;;;;;5136964;27;19914;-44
2023/09/23 06:10:51;;;;;;;;;;;11.90;99.90;;;;;;5136681;27;19912;-43
2023/09/23 06:13:17;;;;;;;;;;;11.90;99.90;;;;;;5118006;27;20001;-44
2023/09/23 06:15:42;;;;;;;;;;;11.90;99.90;;;;;;5122652;27;19916;-45
2023/09/23 06:18:08;;;;;;;;;;;12.00;99.90;;;;;;5122232;27;20064;-45
2023/09/23 06:20:34;;;;;;;;;;;12.00;99.90;;;;;;5120505;27;19912;-42
2023/09/23 06:22:59;;;;;;;;;;;12.00;99.90;;;;;;5155760;27;19911;-43
2023/09/23 06:25:25;;;;;;;;;;;12.00;99.90;;;;;;5152112;27;19915;-43
2023/09/23 06:27:50;;;;;;;;;;;12.10;99.90;;;;;;5124632;27;19912;-44
2023/09/23 06:30:16;;;;;;;;;;;12.10;99.90;;;;;;5121733;27;19934;-44
2023/09/23 06:32:42;;;;;;;;;;;12.10;99.90;;;;;;5124284;27;19919;-44
2023/09/23 06:35:10;;;;;;;;;;;12.10;99.90;;;;;;5123584;27;19981;-44
2023/09/23 06:37:35;;;;;;;;;;;12.20;99.90;;;;;;5125164;27;20256;-45
2023/09/23 06:40:01;;;;;;;;;;;12.20;99.90;;;;;;5123511;27;19918;-43
2023/09/23 06:42:26;;;;;;;;;;;12.20;99.90;;;;;;5131417;27;19941;-44
2023/09/23 06:44:52;;;;;;;;;;;12.20;99.90;;;;;;5144012;27;19911;-46
2023/09/23 06:47:17;;;;;;;;;;;12.30;99.90;;;;;;5141981;27;20354;-46
2023/09/23 06:49:43;;;;;;;;;;;12.30;99.90;;;;;;5147172;27;19911;-43
2023/09/23 06:52:08;;;;;;;;;;;12.30;99.90;;;;;;5144082;27;19998;-45
2023/09/23 06:54:34;;;;;;;;;;;12.40;99.90;;;;;;5154449;27;19911;-42
2023/09/23 06:56:59;;;;;;;;;;;12.40;99.90;;;;;;5145385;27;19923;-43
2023/09/23 06:59:25;;;;;;;;;;;12.40;99.90;;;;;;5134910;27;20006;-44
2023/09/23 07:01:50;;;;;;;;;;;12.40;99.90;;;;;;5121692;27;19908;-44
2023/09/23 07:04:16;;;;;;;;;;;12.50;99.90;;;;;;5115491;27;19911;-44
2023/09/23 07:06:41;;;;;;;;;;;12.60;99.90;;;;;;5131260;27;19911;-44
2023/09/23 07:09:07;;;;;;;;;;;12.60;99.90;;;;;;5127067;27;19912;-45
2023/09/23 07:11:33;;;;;;;;;;;12.80;99.90;;;;;;5142559;27;20309;-44
2023/09/23 07:14:00;;;;;;;;;;;12.90;99.90;;;;;;5147619;27;20273;-44
2023/09/23 07:16:26;;;;;;;;;;;12.90;99.90;;;;;;5139149;27;19925;-43
2023/09/23 07:18:52;;;;;;;;;;;13.00;99.90;;;;;;5138788;27;19911;-44
2023/09/23 07:21:17;;;;;;;;;;;13.10;99.90;;;;;;5147002;27;19998;-43
2023/09/23 07:23:43;;;;;;;;;;;13.10;99.90;;;;;;5135623;27;19914;-44
2023/09/23 07:26:08;;;;;;;;;;;13.20;99.90;;;;;;5137403;27;20002;-44
2023/09/23 07:28:34;;;;;;;;;;;13.20;99.90;;;;;;5148422;27;19915;-43
2023/09/23 07:31:00;;;;;;;;;;;13.30;99.90;;;;;;5135118;27;20089;-45
2023/09/23 07:33:25;;;;;;;;;;;13.30;99.90;;;;;;5134788;27;19920;-43
2023/09/23 07:35:51;;;;;;;;;;;13.30;99.90;;;;;;5137298;27;20017;-44
2023/09/23 07:38:17;;;;;;;;;;;13.30;99.90;;;;;;5155093;27;19946;-45
2023/09/23 07:40:42;;;;;;;;;;;13.30;99.90;;;;;;5155948;27;20315;-43
2023/09/23 07:43:08;;;;;;;;;;;13.30;99.90;;;;;;5155748;27;20005;-44
2023/09/23 07:45:33;;;;;;;;;;;13.30;99.90;;;;;;5140748;27;20013;-45
2023/09/23 07:47:59;;;;;;;;;;;13.40;99.90;;;;;;5134872;27;19933;-44
2023/09/23 07:50:24;;;;;;;;;;;13.50;99.90;;;;;;5135025;27;19908;-45
2023/09/23 07:52:50;;;;;;;;;;;13.50;99.90;;;;;;5134953;27;19956;-45
2023/09/23 07:55:15;;;;;;;;;;;13.60;99.90;;;;;;5144761;27;19911;-44
2023/09/23 07:57:42;;;;;;;;;;;13.60;99.90;;;;;;5142663;27;20014;-42
2023/09/23 08:00:08;;;;;;;;;;;13.70;99.90;;;;;;5145314;27;19918;-43
2023/09/23 08:02:35;;;;;;;;;;;13.80;99.90;;;;;;5153672;27;19911;-43
2023/09/23 08:05:03;;;;;;;;;;;13.90;99.90;;;;;;5145501;27;19915;-45
2023/09/23 08:07:30;;;;;;;;;;;13.80;99.90;;;;;;5134124;27;19914;-43
2023/09/23 08:09:56;;;;;;;;;;;13.90;99.90;;;;;;5134028;27;19946;-44
2023/09/23 08:12:22;;;;;;;;;;;13.90;99.90;;;;;;5136188;27;20039;-44
2023/09/23 08:14:47;;;;;;;;;;;13.90;99.90;;;;;;5134645;27;20011;-44
2023/09/23 08:17:14;;;;;;;;;;;13.90;99.90;;;;;;5134024;27;19920;-44
2023/09/23 08:19:40;;;;;;;;;;;13.90;99.90;;;;;;5136898;27;20423;-44
2023/09/23 08:22:05;;;;;;;;;;;14.00;99.90;;;;;;5143578;27;20380;-43
2023/09/23 08:24:31;;;;;;;;;;;14.00;99.90;;;;;;5133806;27;19907;-43
2023/09/23 08:26:57;;;;;;;;;;;14.00;99.90;;;;;;5134356;27;19911;-43
2023/09/23 08:29:24;;;;;;;;;;;14.10;99.90;;;;;;5134188;27;20441;-46
2023/09/23 08:31:50;;;;;;;;;;;14.10;99.90;;;;;;5133965;27;19908;-44
2023/09/23 08:34:18;;;;;;;;;;;14.20;99.90;;;;;;5133978;27;19927;-44
2023/09/23 08:36:44;;;;;;;;;;;14.20;99.90;;;;;;5153679;27;19919;-46
2023/09/23 08:39:09;;;;;;;;;;;14.20;99.90;;;;;;5154644;27;20010;-43
2023/09/23 08:41:35;;;;;;;;;;;14.20;99.90;;;;;;5154764;27;19907;-44
2023/09/23 08:44:04;;;;;;;;;;;14.30;99.90;;;;;;5154701;27;19907;-44
2023/09/23 08:46:31;;;;;;;;;;;14.30;99.90;;;;;;5154032;27;20370;-43
2023/09/23 08:48:58;;;;;;;;;;;14.40;99.90;;;;;;5147169;27;19956;-45
2023/09/23 08:51:25;;;;;;;;;;;14.40;99.90;;;;;;5141813;27;19911;-44
2023/09/23 08:53:52;;;;;;;;;;;14.50;99.90;;;;;;5136864;27;19956;-44
2023/09/23 08:56:18;;;;;;;;;;;14.60;99.90;;;;;;5133843;27;19919;-42
2023/09/23 08:58:44;;;;;;;;;;;14.70;99.90;;;;;;5133890;27;19914;-44
2023/09/23 09:01:10;;;;;;;;;;;14.70;99.90;;;;;;5133669;27;19914;-43
2023/09/23 09:03:37;;;;;;;;;;;14.70;99.90;;;;;;5147335;27;19934;-43
2023/09/23 09:06:03;;;;;;;;;;;14.80;99.90;;;;;;5154570;27;19960;-44
2023/09/23 09:08:30;;;;;;;;;;;14.90;99.90;;;;;;5154356;27;20262;-44
2023/09/23 09:10:59;;;;;;;;;;;15.10;99.90;;;;;;5154440;27;20390;-43
2023/09/23 09:13:24;;;;;;;;;;;15.20;99.90;;;;;;5141762;27;19916;-42
2023/09/23 09:15:51;;;;;;;;;;;15.30;99.90;;;;;;5131191;28;19964;-43
2023/09/23 09:18:17;;;;;;;;;;;15.40;99.90;;;;;;5133254;28;19945;-43
2023/09/23 09:20:42;;;;;;;;;;;15.50;99.90;;;;;;5135028;27;19916;-46
2023/09/23 09:23:12;;;;;;;;;;;15.60;99.90;;;;;;5154472;27;19911;-44
2023/09/23 09:25:37;;;;;;;;;;;15.70;99.90;;;;;;5143770;27;19911;-43
2023/09/23 09:28:03;;;;;;;;;;;15.70;99.90;;;;;;5146495;27;20346;-43
2023/09/23 09:30:29;;;;;;;;;;;15.60;99.90;;;;;;5140387;27;19953;-44
2023/09/23 09:32:57;;;;;;;;;;;15.60;99.90;;;;;;5137397;27;19919;-43
2023/09/23 09:35:23;;;;;;;;;;;15.60;99.90;;;;;;5141124;27;19911;-44
2023/09/23 09:37:49;;;;;;;;;;;15.70;99.90;;;;;;5151665;27;19946;-44
2023/09/23 09:40:17;;;;;;;;;;;15.80;99.90;;;;;;5150633;27;20361;-44
2023/09/23 09:42:46;;;;;;;;;;;15.90;99.90;;;;;;5136457;27;19907;-44
2023/09/23 09:45:13;;;;;;;;;;;16.00;99.90;;;;;;5139796;27;19912;-43
2023/09/23 09:47:39;;;;;;;;;;;15.90;99.90;;;;;;5137292;27;20010;-43
2023/09/23 09:50:05;;;;;;;;;;;15.90;99.90;;;;;;5136830;27;20274;-43
2023/09/23 09:52:31;;;;;;;;;;;15.90;99.90;;;;;;5136648;27;19911;-43
2023/09/23 09:54:58;;;;;;;;;;;15.80;99.90;;;;;;5137494;27;19939;-42
2023/09/23 09:57:26;;;;;;;;;;;15.80;99.90;;;;;;5116360;28;20014;-43
2023/09/23 09:59:57;;;;;;;;;;;16.00;99.90;;;;;;5118922;27;19954;-43
2023/09/23 10:02:23;;;;;;;;;;;16.10;99.90;;;;;;5136608;27;19986;-42
2023/09/23 10:04:49;;;;;;;;;;;16.40;99.90;;;;;;5136612;27;20251;-43
2023/09/23 10:07:16;;;;;;;;;;;16.60;99.90;;;;;;5155656;27;20010;-43
2023/09/23 10:09:50;;;;;;;;;;;16.80;99.90;;;;;;5146863;27;19999;-44
2023/09/23 10:12:19;;;;;;;;;;;16.90;99.90;;;;;;5154248;27;19907;-44
2023/09/23 10:14:52;;;;;;;;;;;16.90;99.90;;;;;;5126446;27;19911;-43
2023/09/23 10:17:20;;;;;;;;;;;16.90;99.90;;;;;;5157486;27;19919;-43
2023/09/23 10:19:49;;;;;;;;;;;16.90;99.90;;;;;;5136458;27;19908;-43
2023/09/23 10:22:21;;;;;;;;;;;16.90;99.90;;;;;;5136286;27;19907;-42
2023/09/23 10:25:04;;;;;;;;;;;17.00;99.90;;;;;;5126434;27;19915;-43
2023/09/23 10:27:30;;;;;;;;;;;17.00;99.90;;;;;;5135495;27;19994;-43
2023/09/23 10:29:56;;;;;;;;;;;17.10;99.90;;;;;;5135670;27;19981;-42
2023/09/23 10:32:21;;;;;;;;;;;17.00;99.90;;;;;;5145401;27;19911;-43
2023/09/23 10:34:48;;;;;;;;;;;17.00;99.90;;;;;;5138603;27;19915;-43
2023/09/23 10:37:23;;;;;;;;;;;17.00;99.90;;;;;;5135992;27;19915;-43
2023/09/23 10:39:48;;;;;;;;;;;17.10;99.90;;;;;;5136242;27;19995;-42
2023/09/23 10:42:14;;;;;;;;;;;17.10;99.90;;;;;;5135821;27;20378;-42
2023/09/23 10:44:39;;;;;;;;;;;17.20;99.90;;;;;;5135719;27;19918;-43
2023/09/23 10:47:05;;;;;;;;;;;17.30;99.90;;;;;;5136127;27;20005;-43
2023/09/23 10:49:31;;;;;;;;;;;17.20;99.90;;;;;;5135449;27;19919;-45
2023/09/23 10:51:57;;;;;;;;;;;17.20;99.90;;;;;;5136738;27;20377;-44
2023/09/23 10:54:24;;;;;;;;;;;17.00;99.90;;;;;;5135385;27;19957;-44
2023/09/23 10:56:49;;;;;;;;;;;17.00;99.90;;;;;;5135328;27;19921;-45
2023/09/23 10:59:15;;;;;;;;;;;16.90;99.90;;;;;;5134950;27;19994;-44
2023/09/23 11:01:40;;;;;;;;;;;17.10;99.90;;;;;;5148607;27;19915;-43
2023/09/23 11:04:06;;;;;;;;;;;17.30;99.90;;;;;;5134041;27;20002;-43
2023/09/23 11:06:33;;;;;;;;;;;17.60;99.90;;;;;;5118666;27;20381;-44
2023/09/23 11:08:59;;;;;;;;;;;17.50;99.90;;;;;;5123711;27;19911;-43
2023/09/23 11:11:25;;;;;;;;;;;17.40;99.90;;;;;;5135023;27;20291;-44
2023/09/23 11:13:50;;;;;;;;;;;17.30;99.90;;;;;;5135454;27;20450;-43
2023/09/23 11:16:16;;;;;;;;;;;17.20;99.90;;;;;;5134181;27;19950;-43
2023/09/23 11:18:42;;;;;;;;;;;17.10;99.90;;;;;;5134621;27;19916;-43
2023/09/23 11:21:08;;;;;;;;;;;17.10;99.90;;;;;;5143771;27;19911;-44
2023/09/23 11:23:34;;;;;;;;;;;17.00;99.90;;;;;;5151097;27;19912;-43
2023/09/23 11:26:00;;;;;;;;;;;17.00;99.90;;;;;;5134714;27;19915;-42
2023/09/23 11:28:26;;;;;;;;;;;16.90;99.90;;;;;;5134224;27;19912;-44
2023/09/23 11:30:52;;;;;;;;;;;17.00;99.90;;;;;;5137994;27;19976;-43
2023/09/23 11:33:18;;;;;;;;;;;17.00;99.90;;;;;;5153440;27;19920;-43
2023/09/23 11:35:44;;;;;;;;;;;16.90;99.90;;;;;;5135254;27;20362;-43
2023/09/23 11:38:10;;;;;;;;;;;16.90;99.90;;;;;;5134306;27;19924;-44
2023/09/23 11:40:36;;;;;;;;;;;16.80;99.90;;;;;;5134818;27;19915;-45
2023/09/23 11:43:02;;;;;;;;;;;16.60;99.90;;;;;;5133779;27;19976;-43
2023/09/23 11:45:27;;;;;;;;;;;16.40;99.90;;;;;;5134453;27;19912;-42
2023/09/23 11:47:56;;;;;;;;;;;16.30;99.90;;;;;;5134447;27;19952;-43
2023/09/23 11:50:21;;;;;;;;;;;16.30;99.90;;;;;;5139187;27;19914;-45
2023/09/23 11:52:47;;;;;;;;;;;16.40;99.90;;;;;;5150328;27;19911;-43
2023/09/23 11:55:13;;;;;;;;;;;16.40;99.90;;;;;;5133990;27;20354;-43
2023/09/23 11:57:41;;;;;;;;;;;16.50;99.90;;;;;;5134490;27;19930;-44
2023/09/23 12:00:09;;;;;;;;;;;16.70;99.90;;;;;;5136800;27;19926;-43
2023/09/23 12:02:39;;;;;;;;;;;16.80;99.90;;;;;;5154556;27;20381;-44
2023/09/23 12:05:07;;;;;;;;;;;16.90;99.90;;;;;;5155613;27;19914;-44
2023/09/23 12:07:33;;;;;;;;;;;17.00;99.90;;;;;;5155313;27;19959;-44
2023/09/23 12:09:59;;;;;;;;;;;17.10;99.90;;;;;;5153880;27;19951;-43
2023/09/23 12:12:26;;;;;;;;;;;17.20;99.90;;;;;;5134567;27;19998;-43
2023/09/23 12:14:52;;;;;;;;;;;17.30;99.90;;;;;;5134705;27;19998;-43
2023/09/23 12:17:17;;;;;;;;;;;17.40;99.90;;;;;;5134312;27;20009;-44
2023/09/23 12:19:46;;;;;;;;;;;17.50;99.90;;;;;;5134593;27;19954;-43
2023/09/23 12:22:12;;;;;;;;;;;17.70;99.90;;;;;;5154130;27;20371;-43
2023/09/23 12:24:39;;;;;;;;;;;18.00;99.90;;;;;;5155103;27;19918;-44
2023/09/23 12:27:04;;;;;;;;;;;18.20;99.90;;;;;;5155131;27;19914;-43
2023/09/23 12:29:29;;;;;;;;;;;18.30;99.90;;;;;;5155118;27;19914;-42
2023/09/23 12:31:55;;;;;;;;;;;18.50;99.90;;;;;;5137236;27;19907;-42
2023/09/23 12:34:20;;;;;;;;;;;18.40;99.90;;;;;;5142982;27;20005;-43
2023/09/23 12:36:46;;;;;;;;;;;18.40;99.90;;;;;;5154844;27;19915;-43
2023/09/23 12:39:14;;;;;;;;;;;18.30;99.90;;;;;;5154709;27;19907;-44
2023/09/23 12:41:39;;;;;;;;;;;18.20;99.90;;;;;;5154887;27;19912;-43
2023/09/23 12:44:05;;;;;;;;;;;18.10;99.90;;;;;;5150359;27;19907;-44
2023/09/23 12:46:31;;;;;;;;;;;18.00;99.90;;;;;;5134002;27;19915;-43
2023/09/23 12:48:56;;;;;;;;;;;17.80;99.90;;;;;;5134033;27;19914;-45
2023/09/23 12:51:22;;;;;;;;;;;17.60;99.90;;;;;;5133904;27;19908;-41
2023/09/23 12:53:47;;;;;;;;;;;17.40;99.90;;;;;;5145246;27;19911;-40
2023/09/23 12:56:13;;;;;;;;;;;17.10;99.90;;;;;;5143787;27;20408;-39
2023/09/23 12:58:39;;;;;;;;;;;16.70;99.90;;;;;;5146169;27;19924;-43
2023/09/23 13:01:06;;;;;;;;;;;16.40;99.90;;;;;;5133051;27;19955;-42
2023/09/23 13:03:32;;;;;;;;;;;16.20;99.90;;;;;;5115123;27;19919;-42
2023/09/23 13:05:58;;;;;;;;;;;16.10;99.90;;;;;;5122469;27;19912;-43
2023/09/23 13:08:23;;;;;;;;;;;16.40;99.90;;;;;;5114199;28;19907;-42
2023/09/23 13:10:49;;;;;;;;;;;16.60;99.90;;;;;;5118744;27;19912;-44
2023/09/23 13:13:16;;;;;;;;;;;16.90;99.90;;;;;;5118482;27;19911;-44
2023/09/23 13:15:41;;;;;;;;;;;17.10;99.90;;;;;;5124625;27;19911;-43
2023/09/23 13:18:08;;;;;;;;;;;17.10;99.90;;;;;;5147342;27;19930;-43
2023/09/23 13:20:33;;;;;;;;;;;16.90;99.90;;;;;;5135077;27;19918;-43
2023/09/23 13:22:59;;;;;;;;;;;16.90;99.90;;;;;;5137575;27;19911;-43
2023/09/23 13:25:25;;;;;;;;;;;16.80;99.90;;;;;;5148648;27;19965;-43
2023/09/23 13:27:52;;;;;;;;;;;16.80;99.90;;;;;;5141647;27;20138;-43
2023/09/23 13:30:18;;;;;;;;;;;16.80;99.90;;;;;;5138778;27;19914;-45
2023/09/23 13:32:44;;;;;;;;;;;16.70;99.90;;;;;;5145321;27;19919;-43
2023/09/23 13:35:09;;;;;;;;;;;16.70;99.90;;;;;;5134214;27;20022;-43
2023/09/23 13:37:36;;;;;;;;;;;16.60;99.90;;;;;;5149706;27;19919;-44
2023/09/23 13:40:04;;;;;;;;;;;16.50;99.90;;;;;;5145725;27;19948;-43
2023/09/23 13:42:30;;;;;;;;;;;16.40;99.90;;;;;;5141946;27;19961;-44
2023/09/23 13:44:56;;;;;;;;;;;16.30;99.90;;;;;;5143661;27;19911;-43
2023/09/23 13:47:22;;;;;;;;;;;16.20;99.90;;;;;;5135917;27;19919;-43
2023/09/23 13:49:47;;;;;;;;;;;16.00;99.90;;;;;;5131217;27;19911;-42
2023/09/23 13:52:13;;;;;;;;;;;15.90;99.90;;;;;;5140304;27;19972;-43
2023/09/23 13:54:39;;;;;;;;;;;15.80;99.90;;;;;;5119326;27;19922;-45
2023/09/23 13:57:04;;;;;;;;;;;15.70;99.90;;;;;;5126986;27;20067;-45
2023/09/23 13:59:30;;;;;;;;;;;15.70;99.90;;;;;;5122234;27;19916;-45
2023/09/23 14:01:56;;;;;;;;;;;15.60;99.90;;;;;;5113055;28;19908;-44
2023/09/23 14:04:22;;;;;;;;;;;15.50;99.90;;;;;;5123737;28;20006;-44
2023/09/23 14:06:47;;;;;;;;;;;15.50;99.90;;;;;;5132020;27;19999;-44
2023/09/23 14:09:13;;;;;;;;;;;15.40;99.90;;;;;;5135004;27;20002;-44
2023/09/23 14:11:38;;;;;;;;;;;15.40;99.90;;;;;;5134869;27;20480;-44